Time;durP1;ratioP1;P1;durP2;ratioP2;P2;SDS_P1;SDS_P2;PMS_P1;PMS_P2;Temp;Humidity;BMP_temperature;BMP_pressure;BME280_temperature;BME280_humidity;BME280_pressure;Samples;Min_cycle;Max_cycle;Signal;HPM_P1;HPM_P2
2021/05/30 00:00:09;;;;;;;3.57;3.27;;;;;;;17.36;55.71;94901.47;5061097;28;20446;-82
2021/05/30 00:02:36;;;;;;;3.47;3.17;;;;;;;17.37;55.52;94892.53;5096888;28;20497;-82
2021/05/30 00:05:04;;;;;;;4.20;3.80;;;;;;;17.36;55.96;94898.81;5096770;28;20434;-82
2021/05/30 00:07:30;;;;;;;4.77;2.97;;;;;;;17.28;55.09;94884.56;5096105;28;21036;-82
2021/05/30 00:09:57;;;;;;;12.47;3.90;;;;;;;17.23;55.78;94883.44;5096544;28;20782;-82
2021/05/30 00:16:01;;;;;;;7.47;2.77;;;;;;;17.20;55.15;94881.13;5096349;28;20410;-82
2021/05/30 00:18:27;;;;;;;4.80;2.60;;;;;;;17.16;55.75;94879.81;5096806;28;20847;-82
2021/05/30 00:20:54;;;;;;;3.63;3.00;;;;;;;17.10;55.66;94885.81;5060828;28;20439;-82
2021/05/30 00:23:20;;;;;;;2.80;2.60;;;;;;;17.07;55.36;94881.66;5095905;28;20444;-82
2021/05/30 00:25:47;;;;;;;3.07;2.77;;;;;;;17.05;55.57;94878.34;5096082;28;20499;-82
2021/05/30 00:28:13;;;;;;;2.97;2.70;;;;;;;17.01;55.64;94877.03;5095900;28;20779;-82
2021/05/30 00:30:40;;;;;;;3.10;2.67;;;;;;;17.00;55.59;94870.91;5096033;28;20543;-83
2021/05/30 00:33:08;;;;;;;3.57;3.00;;;;;;;16.94;55.46;94881.34;5095740;28;20785;-82
2021/05/30 00:35:34;;;;;;;4.00;3.13;;;;;;;16.94;56.26;94878.69;5095898;28;20431;-82
2021/05/30 00:38:01;;;;;;;4.03;2.83;;;;;;;16.93;55.67;94885.00;5095734;28;20822;-82
2021/05/30 00:40:27;;;;;;;4.73;3.20;;;;;;;16.94;55.79;94879.53;5095834;28;20455;-82
2021/05/30 00:42:54;;;;;;;4.20;3.30;;;;;;;16.92;56.34;94884.19;5095514;28;20455;-82
2021/05/30 00:45:20;;;;;;;3.40;2.53;;;;;;;16.90;56.09;94885.34;5095650;28;20440;-82
2021/05/30 00:47:47;;;;;;;5.03;2.67;;;;;;;16.85;55.97;94888.50;5043462;28;20600;-83
2021/05/30 00:50:14;;;;;;;2.90;2.70;;;;;;;16.78;56.12;94884.88;5095581;28;20934;-82
2021/05/30 00:52:42;;;;;;;2.73;2.43;;;;;;;16.78;56.38;94886.69;5059928;28;20444;-82
2021/05/30 00:55:12;;;;;;;3.40;2.53;;;;;;;16.75;55.93;94887.84;5060097;28;20486;-82
2021/05/30 00:57:39;;;;;;;6.67;2.50;;;;;;;16.68;56.94;94892.97;5095172;28;20446;-83
2021/05/30 01:00:10;;;;;;;3.73;2.70;;;;;;;16.66;56.35;94887.03;5095965;28;20435;-82
2021/05/30 01:02:37;;;;;;;7.20;2.60;;;;;;;16.67;56.34;94888.69;5095258;28;20472;-82
2021/05/30 01:05:04;;;;;;;2.67;2.37;;;;;;;16.60;56.30;94887.66;5095023;28;20820;-82
2021/05/30 01:07:36;;;;;;;2.90;2.70;;;;;;;16.54;56.88;94898.09;5060256;28;20486;-82
2021/05/30 01:10:29;;;;;;;2.97;2.77;;;;;;;16.51;57.48;94904.56;5095345;28;20454;-82
2021/05/30 01:12:57;;;;;;;7.23;2.73;;;;;;;16.47;57.31;94889.97;5013080;28;20478;-82
2021/05/30 01:15:24;;;;;;;2.57;2.37;;;;;;;16.45;57.37;94880.53;5013078;28;20457;-82
2021/05/30 01:17:53;;;;;;;3.10;2.90;;;;;;;16.44;57.44;94879.72;5013070;28;20442;-82
2021/05/30 01:20:20;;;;;;;4.03;2.23;;;;;;;16.48;57.34;94886.38;5013049;28;20481;-82
2021/05/30 01:22:49;;;;;;;4.13;2.23;;;;;;;16.49;56.83;94888.03;5012985;28;20445;-82
2021/05/30 01:25:19;;;;;;;2.83;2.50;;;;;;;16.41;56.94;94888.00;4996577;28;20477;-82
2021/05/30 01:27:45;;;;;;;5.77;2.67;;;;;;;16.42;57.48;94890.47;5012671;28;20509;-82
2021/05/30 01:30:14;;;;;;;2.60;2.40;;;;;;;16.45;57.16;94885.84;5012574;28;20497;-82
2021/05/30 01:32:41;;;;;;;3.60;2.50;;;;;;;16.48;56.82;94885.50;5012535;28;20477;-82
2021/05/30 01:35:09;;;;;;;3.40;2.90;;;;;;;16.37;57.04;94884.03;5012389;28;20443;-82
2021/05/30 01:37:36;;;;;;;3.20;2.33;;;;;;;16.38;57.22;94888.34;4996408;28;20493;-82
2021/05/30 01:40:03;;;;;;;2.90;2.43;;;;;;;16.34;56.79;94884.38;5012459;28;20453;-82
2021/05/30 01:42:31;;;;;;;3.30;3.00;;;;;;;16.29;57.35;94887.50;5012492;28;20837;-82
2021/05/30 01:44:57;;;;;;;6.43;2.87;;;;;;;16.31;57.49;94882.88;5012373;28;20444;-82
2021/05/30 01:47:24;;;;;;;5.23;2.80;;;;;;;16.23;57.42;94888.19;5012154;28;20502;-82
2021/05/30 01:49:50;;;;;;;3.73;2.40;;;;;;;16.27;57.67;94884.19;5044959;28;20953;-82
2021/05/30 01:52:17;;;;;;;2.67;2.40;;;;;;;16.27;57.21;94894.78;5042075;28;20430;-82
2021/05/30 01:54:47;;;;;;;3.50;3.20;;;;;;;16.26;57.32;94892.31;5094450;28;20487;-82
2021/05/30 01:57:15;;;;;;;2.53;2.20;;;;;;;16.30;57.10;94898.94;5094302;28;20436;-82
2021/05/30 01:59:43;;;;;;;3.83;2.83;;;;;;;16.29;56.99;94890.16;5093382;28;20435;-82
2021/05/30 02:02:10;;;;;;;4.10;3.00;;;;;;;16.32;56.81;94896.94;5094688;28;20496;-82
2021/05/30 02:04:42;;;;;;;3.20;2.90;;;;;;;16.30;57.23;94901.56;5094347;28;20462;-82
2021/05/30 02:07:08;;;;;;;8.57;2.63;;;;;;;16.30;56.69;94893.63;5094048;28;20519;-82
2021/05/30 02:09:37;;;;;;;4.33;3.23;;;;;;;16.29;57.27;94894.63;5094205;28;20471;-82
2021/05/30 02:12:05;;;;;;;2.87;2.67;;;;;;;16.30;57.15;94896.28;5093885;28;20441;-82
2021/05/30 02:14:32;;;;;;;8.13;3.00;;;;;;;16.33;57.35;94890.66;5094100;28;20442;-82
2021/05/30 02:17:00;;;;;;;3.87;2.73;;;;;;;16.29;56.73;94894.63;5094150;28;20443;-82
2021/05/30 02:19:26;;;;;;;3.63;3.07;;;;;;;16.29;57.45;94892.81;5094127;28;20442;-82
2021/05/30 02:21:54;;;;;;;5.63;3.00;;;;;;;16.29;57.08;94891.97;5058813;28;20872;-82
2021/05/30 02:24:23;;;;;;;3.20;2.90;;;;;;;16.28;57.40;94893.81;5093658;28;20488;-82
2021/05/30 02:26:50;;;;;;;2.70;2.50;;;;;;;16.28;56.48;94896.44;5093966;28;20509;-82
2021/05/30 02:29:28;;;;;;;3.03;2.80;;;;;;;16.32;57.29;94902.25;5093875;28;20432;-82
2021/05/30 02:31:55;;;;;;;2.57;2.37;;;;;;;16.35;56.99;94896.59;5094060;28;20840;-82
2021/05/30 02:34:22;;;;;;;2.87;2.60;;;;;;;16.41;57.13;94893.28;5093707;28;20428;-82
2021/05/30 02:36:49;;;;;;;4.70;2.73;;;;;;;16.37;56.68;94900.75;5058316;28;20505;-82
2021/05/30 02:39:16;;;;;;;2.53;2.33;;;;;;;16.41;57.10;94901.25;5093545;28;20448;-82
2021/05/30 02:41:42;;;;;;;3.63;2.97;;;;;;;16.49;57.66;94898.63;5093428;28;20486;-82
2021/05/30 02:44:09;;;;;;;2.77;2.57;;;;;;;16.47;57.12;94895.28;5093593;28;20806;-82
2021/05/30 02:46:35;;;;;;;6.67;2.70;;;;;;;16.57;57.14;94908.38;5058218;28;20528;-82
2021/05/30 02:49:02;;;;;;;4.67;3.37;;;;;;;16.62;58.47;94903.41;5093454;28;20475;-82
2021/05/30 02:51:29;;;;;;;3.13;2.93;;;;;;;16.63;60.85;94900.56;5058489;28;20916;-82
2021/05/30 02:53:56;;;;;;;3.33;3.10;;;;;;;16.63;61.92;94902.41;5041221;28;20497;-82
2021/05/30 02:56:22;;;;;;;5.80;3.30;;;;;;;16.61;62.51;94902.56;5093399;28;20454;-82
2021/05/30 02:58:49;;;;;;;4.00;3.70;;;;;;;16.56;62.46;94901.41;5058084;28;20962;-82
2021/05/30 03:01:15;;;;;;;4.20;3.77;;;;;;;16.49;63.45;94909.22;5093301;28;20454;-82
2021/05/30 03:03:42;;;;;;;6.10;3.10;;;;;;;16.49;63.57;94909.22;5057997;28;21053;-82
2021/05/30 03:06:08;;;;;;;4.17;3.53;;;;;;;16.46;63.85;94898.91;5092945;28;20537;-82
2021/05/30 03:08:36;;;;;;;3.53;3.23;;;;;;;16.41;64.21;94902.06;5093522;28;20424;-82
2021/05/30 03:11:03;;;;;;;6.33;3.40;;;;;;;16.41;64.48;94893.28;5094271;28;20795;-82
2021/05/30 03:13:29;;;;;;;3.30;3.10;;;;;;;16.36;64.45;94899.09;5062117;28;20938;-82
2021/05/30 03:15:56;;;;;;;4.40;3.87;;;;;;;16.35;65.07;94901.91;5097268;28;20492;-82
2021/05/30 03:18:22;;;;;;;4.80;3.43;;;;;;;16.32;65.29;94894.28;5097466;28;20449;-82
2021/05/30 03:20:49;;;;;;;3.97;3.50;;;;;;;16.30;65.19;94899.75;5097210;28;20847;-82
2021/05/30 03:23:15;;;;;;;6.40;3.93;;;;;;;16.24;65.60;94895.13;5097137;28;20489;-82
2021/05/30 03:25:43;;;;;;;3.83;3.23;;;;;;;16.20;65.22;94898.28;5061567;28;20444;-82
2021/05/30 03:28:10;;;;;;;5.50;3.47;;;;;;;16.12;65.28;94901.72;5096896;28;20447;-82
2021/05/30 03:30:36;;;;;;;3.53;3.23;;;;;;;16.06;66.18;94902.38;5096995;28;20952;-82
2021/05/30 03:33:03;;;;;;;4.00;3.50;;;;;;;16.06;66.39;94902.38;5097234;28;20433;-82
2021/05/30 03:35:30;;;;;;;3.60;3.30;;;;;;;16.05;66.50;94904.19;5096906;28;20793;-82
2021/05/30 03:37:58;;;;;;;4.40;2.97;;;;;;;16.04;67.01;94902.53;5096835;28;20955;-82
2021/05/30 03:40:30;;;;;;;3.93;3.60;;;;;;;16.06;66.72;94897.91;5097153;28;20473;-82
2021/05/30 03:42:58;;;;;;;5.30;3.57;;;;;;;16.06;67.37;94900.56;5097637;28;20455;-82
2021/05/30 03:45:25;;;;;;;4.80;4.00;;;;;;;16.06;67.56;94897.91;5096697;28;20426;-82
2021/05/30 03:47:52;;;;;;;3.87;3.53;;;;;;;16.11;66.67;94905.34;5096555;28;20478;-82
2021/05/30 03:50:19;;;;;;;4.20;3.80;;;;;;;16.10;66.34;94907.19;5096868;28;20811;-82
2021/05/30 03:52:46;;;;;;;22.97;4.50;;;;;;;16.18;66.97;94897.56;5061355;28;20935;-82
2021/05/30 03:55:14;;;;;;;4.10;3.80;;;;;;;16.13;67.53;94897.25;5060969;28;20474;-82
2021/05/30 03:57:41;;;;;;;4.70;3.50;;;;;;;16.11;67.10;94910.66;5096567;28;20447;-82
2021/05/30 04:00:10;;;;;;;4.20;3.47;;;;;;;16.15;67.10;94904.03;5097170;28;20433;-82
2021/05/30 04:02:37;;;;;;;3.60;3.37;;;;;;;16.20;67.14;94903.56;5096714;28;20830;-82
2021/05/30 04:05:05;;;;;;;4.60;3.83;;;;;;;16.21;67.02;94906.06;5096591;28;20442;-82
2021/05/30 04:07:32;;;;;;;5.17;3.40;;;;;;;16.20;67.35;94904.41;5096522;28;20474;-76
2021/05/30 04:10:02;;;;;;;4.30;4.00;;;;;;;16.19;67.49;94901.88;5096544;28;20819;-82
2021/05/30 04:12:29;;;;;;;4.87;4.20;;;;;;;16.19;67.34;94909.81;5062077;28;20446;-82
2021/05/30 04:14:56;;;;;;;6.37;3.77;;;;;;;15.90;68.34;94908.47;5096482;28;20462;-82
2021/05/30 04:17:23;;;;;;;4.83;4.20;;;;;;;15.96;68.32;94909.66;5096230;28;20440;-82
2021/05/30 04:23:11;;;;;;;12.03;4.03;;;;;;;15.83;68.60;94911.91;5094376;28;20432;-83
2021/05/30 04:25:40;;;;;;;5.67;4.27;;;;;;;15.89;69.67;94912.09;5096172;28;20447;-83
2021/05/30 04:28:06;;;;;;;4.17;3.80;;;;;;;15.96;67.79;94907.81;5096010;28;20939;-83
2021/05/30 04:30:33;;;;;;;6.13;4.30;;;;;;;15.97;68.98;94908.66;5096296;28;20432;-85
2021/05/30 04:33:00;;;;;;;4.10;3.80;;;;;;;15.98;68.69;94905.84;5096135;28;20486;-82
2021/05/30 04:35:27;;;;;;;3.80;3.20;;;;;;;15.99;65.28;94907.50;5096359;28;20434;-82
2021/05/30 04:37:53;;;;;;;7.50;3.83;;;;;;;16.06;63.01;94907.66;5095729;28;20805;-82
2021/05/30 04:40:23;;;;;;;5.70;3.23;;;;;;;16.07;61.70;94909.31;5095676;28;20434;-83
2021/05/30 04:42:50;;;;;;;3.10;2.87;;;;;;;16.13;62.21;94892.78;5096003;28;20488;-82
2021/05/30 04:45:18;;;;;;;5.13;3.50;;;;;;;16.17;62.52;94909.16;5095788;28;20451;-82
2021/05/30 04:47:45;;;;;;;6.63;3.33;;;;;;;16.29;61.69;94899.94;5095860;28;20506;-81
2021/05/30 04:50:13;;;;;;;3.20;3.00;;;;;;;16.31;60.44;94900.59;5095713;28;20842;-80
2021/05/30 04:52:40;;;;;;;3.80;3.33;;;;;;;16.32;60.41;94899.59;5095474;28;20447;-81
2021/05/30 04:55:11;;;;;;;3.37;2.70;;;;;;;16.44;61.63;94906.19;5095318;28;20833;-81
2021/05/30 04:57:38;;;;;;;3.42;3.13;;;;;;;16.46;60.19;94892.78;5095164;28;20432;-82
2021/05/30 05:00:07;;;;;;;2.53;2.33;;;;;;;16.63;59.81;94894.44;5095538;28;20542;-81
2021/05/30 05:02:33;;;;;;;6.20;3.40;;;;;;;16.69;59.18;94894.63;5095503;28;21157;-80
2021/05/30 05:05:00;;;;;;;3.20;2.90;;;;;;;16.77;59.30;94898.25;5095681;28;20467;-80
2021/05/30 05:07:27;;;;;;;3.27;3.07;;;;;;;16.83;59.18;94905.56;5095667;28;20482;-80
2021/05/30 05:09:54;;;;;;;6.97;6.30;;;;;;;17.11;69.98;94898.88;5095438;28;20443;-82
2021/05/30 05:12:20;;;;;;;10.20;8.17;;;;;;;17.33;66.80;94899.97;5095603;28;20424;-84
2021/05/30 05:14:47;;;;;;;5.40;4.67;;;;;;;17.65;60.05;94899.84;5095589;28;20447;-85
2021/05/30 05:17:13;;;;;;;7.00;6.17;;;;;;;17.82;65.07;94908.59;5060255;28;20502;-85
2021/05/30 05:19:40;;;;;;;11.10;8.77;;;;;;;18.46;64.68;94911.81;5095580;28;20440;-83
2021/05/30 05:22:07;;;;;;;7.23;3.67;;;;;;;18.81;55.11;94907.78;5094959;28;20448;-82
2021/05/30 05:24:34;;;;;;;3.97;3.67;;;;;;;18.62;53.33;94910.91;5094680;28;20443;-82
2021/05/30 05:27:01;;;;;;;3.17;2.93;;;;;;;18.42;54.01;94901.72;5094974;28;20473;-88
2021/05/30 05:29:27;;;;;;;4.10;2.97;;;;;;;18.06;54.19;94910.28;5094890;28;20939;-83
2021/05/30 05:31:54;;;;;;;3.73;3.43;;;;;;;17.84;55.24;94909.22;5094713;28;20489;-83
2021/05/30 05:34:21;;;;;;;3.20;2.90;;;;;;;17.77;55.20;94910.94;5093880;28;20916;-84
2021/05/30 05:36:47;;;;;;;4.00;3.23;;;;;;;17.58;55.70;94906.84;5094775;28;20506;-83
2021/05/30 05:39:14;;;;;;;3.30;3.00;;;;;;;17.47;56.88;94914.34;5094670;28;20985;-85
2021/05/30 05:41:42;;;;;;;3.47;3.17;;;;;;;17.27;57.75;94909.44;5094764;28;20481;-84
2021/05/30 05:44:08;;;;;;;26.00;23.20;;;;;;;17.29;70.32;94906.59;5094463;28;20982;-86
2021/05/30 05:46:35;;;;;;;4.10;3.50;;;;;;;17.29;57.79;94914.56;5094645;28;20481;-85
2021/05/30 05:49:01;;;;;;;3.33;3.07;;;;;;;17.24;58.17;94915.09;5094466;28;20432;-82
2021/05/30 05:51:28;;;;;;;4.45;3.00;;;;;;;17.04;58.40;94913.78;5093651;28;20452;-82
2021/05/30 05:53:55;;;;;;;4.10;3.80;;;;;;;17.25;58.15;94911.44;5094492;28;20206;-81
2021/05/30 05:56:21;;;;;;;10.47;4.07;;;;;;;17.15;58.03;94912.63;5094092;28;21046;-81
2021/05/30 05:58:48;;;;;;;6.20;3.60;;;;;;;17.16;58.68;94907.16;5094115;28;20459;-83
2021/05/30 06:01:15;;;;;;;3.40;3.20;;;;;;;17.08;58.01;94911.66;5095077;28;20960;-84
2021/05/30 06:03:42;;;;;;;3.07;2.87;;;;;;;16.94;57.54;94911.34;5095652;28;20807;-85
2021/05/30 06:06:09;;;;;;;12.40;3.00;;;;;;;16.86;58.53;94918.47;5094378;28;20440;-83
2021/05/30 06:08:35;;;;;;;5.33;3.57;;;;;;;16.87;59.78;94914.84;5094425;28;21330;-83
2021/05/30 06:11:02;;;;;;;3.40;3.10;;;;;;;16.86;59.00;94911.34;5094677;28;20438;-82
2021/05/30 06:13:28;;;;;;;5.67;3.50;;;;;;;16.84;59.15;94921.31;5094431;28;20446;-82
2021/05/30 06:15:56;;;;;;;5.17;3.77;;;;;;;16.84;59.66;94917.81;5094609;28;20447;-82
2021/05/30 06:18:23;;;;;;;3.60;3.30;;;;;;;16.85;58.30;94909.72;5042008;28;20813;-80
2021/05/30 06:20:50;;;;;;;3.60;3.00;;;;;;;16.95;59.75;94914.81;5094071;28;20529;-80
2021/05/30 06:23:17;;;;;;;6.20;3.40;;;;;;;16.99;59.16;94909.00;5039025;28;20443;-83
2021/05/30 06:25:44;;;;;;;3.80;2.63;;;;;;;16.96;57.36;94916.47;5074592;28;20927;-83
2021/05/30 06:28:11;;;;;;;3.30;3.10;;;;;;;17.09;58.44;94915.97;5074021;28;20538;-85
2021/05/30 06:30:39;;;;;;;5.83;3.80;;;;;;;17.19;57.64;94921.91;5073961;28;20434;-85
2021/05/30 06:33:09;;;;;;;3.23;2.93;;;;;;;17.19;57.49;94906.81;5074806;28;20429;-85
2021/05/30 06:35:39;;;;;;;7.40;3.40;;;;;;;17.23;57.59;94912.59;5093748;28;20501;-84
2021/05/30 06:38:05;;;;;;;6.47;3.30;;;;;;;17.22;56.40;94913.59;5094536;28;21150;-85
2021/05/30 06:40:32;;;;;;;4.57;4.20;;;;;;;17.27;56.25;94914.75;5094119;28;20444;-86
2021/05/30 06:42:59;;;;;;;5.10;3.10;;;;;;;17.28;57.46;94921.69;5094621;28;20787;-85
2021/05/30 06:45:26;;;;;;;5.53;3.33;;;;;;;17.40;57.21;94924.00;5094643;28;20436;-85
2021/05/30 06:47:53;;;;;;;5.43;2.90;;;;;;;17.42;56.36;94932.63;5094616;28;20484;-85
2021/05/30 06:50:21;;;;;;;3.57;3.27;;;;;;;17.43;57.15;94929.78;5094389;28;20447;-87
2021/05/30 06:52:48;;;;;;;4.53;3.27;;;;;;;17.52;57.27;94934.06;5093860;28;20935;-83
2021/05/30 06:55:14;;;;;;;6.53;3.40;;;;;;;17.45;56.11;94937.56;5094036;28;20850;-85
2021/05/30 06:57:44;;;;;;;4.10;3.50;;;;;;;17.26;54.58;94936.97;5058492;28;20436;-85
2021/05/30 07:00:13;;;;;;;5.10;3.60;;;;;;;17.19;56.02;94928.03;5093485;28;20455;-84
2021/05/30 07:02:40;;;;;;;4.40;4.00;;;;;;;17.20;55.34;94928.84;5093507;28;20448;-84
2021/05/30 07:05:07;;;;;;;5.60;3.73;;;;;;;17.22;55.88;94942.78;5093503;28;20479;-84
2021/05/30 07:07:35;;;;;;;7.10;3.67;;;;;;;17.21;55.97;94941.94;5058164;28;21043;-85
2021/05/30 07:10:01;;;;;;;3.73;3.40;;;;;;;17.23;56.79;94944.44;5083976;28;20812;-85
2021/05/30 07:12:28;;;;;;;4.33;3.17;;;;;;;17.18;58.61;94936.97;5073430;28;20928;-83
2021/05/30 07:14:55;;;;;;;5.40;3.40;;;;;;;17.22;56.78;94948.91;5085582;28;20455;-83
2021/05/30 07:17:21;;;;;;;7.10;4.10;;;;;;;17.11;56.93;94937.84;5073026;28;20527;-83
2021/05/30 07:19:50;;;;;;;4.17;3.80;;;;;;;17.16;57.94;94946.94;5073361;28;20796;-84
2021/05/30 07:22:16;;;;;;;7.40;3.57;;;;;;;17.11;58.33;94948.44;5077484;28;21056;-83
2021/05/30 07:24:44;;;;;;;3.33;3.10;;;;;;;17.16;59.10;94938.97;5087448;28;20448;-84
2021/05/30 07:27:11;;;;;;;5.67;3.50;;;;;;;17.23;58.36;94957.69;5072912;28;20529;-83
2021/05/30 07:29:37;;;;;;;3.80;3.50;;;;;;;17.27;57.92;94951.88;5076465;28;20447;-84
2021/05/30 07:32:05;;;;;;;5.07;3.70;;;;;;;17.38;56.69;94948.06;5073083;28;20440;-80
2021/05/30 07:34:31;;;;;;;3.83;3.17;;;;;;;17.56;57.44;94945.16;5072971;28;20474;-83
2021/05/30 07:36:58;;;;;;;3.73;3.13;;;;;;;17.68;56.23;94943.84;5077246;28;20429;-83
2021/05/30 07:39:24;;;;;;;5.80;3.60;;;;;;;17.88;58.59;94944.22;5093129;28;20956;-82
2021/05/30 07:41:52;;;;;;;5.63;3.03;;;;;;;18.04;56.08;94949.47;5092968;28;20435;-83
2021/05/30 07:44:20;;;;;;;3.20;3.00;;;;;;;18.19;55.65;94941.56;5041580;28;20469;-83
2021/05/30 07:46:46;;;;;;;6.27;3.50;;;;;;;18.35;55.18;94945.97;5073424;28;20483;-83
2021/05/30 07:49:13;;;;;;;2.77;2.57;;;;;;;18.46;53.18;94941.06;5072936;28;20487;-82
2021/05/30 07:51:40;;;;;;;3.10;2.60;;;;;;;18.55;52.82;94926.72;5073226;28;20452;-83
2021/05/30 07:54:06;;;;;;;3.53;2.80;;;;;;;18.69;52.38;94940.25;5072861;28;20512;-83
2021/05/30 07:56:36;;;;;;;4.00;3.10;;;;;;;18.58;51.20;94934.34;5073165;28;20814;-82
2021/05/30 07:59:07;;;;;;;2.93;2.73;;;;;;;18.79;52.24;94927.53;5075736;28;20461;-82
2021/05/30 08:01:34;;;;;;;3.47;3.17;;;;;;;18.63;51.50;94933.84;5076846;28;20512;-82
2021/05/30 08:04:00;;;;;;;3.50;3.00;;;;;;;18.79;51.69;94932.84;5076466;28;20868;-83
2021/05/30 08:06:29;;;;;;;4.57;3.17;;;;;;;18.93;53.48;94921.44;5076381;28;20957;-82
2021/05/30 08:08:56;;;;;;;5.47;4.37;;;;;;;19.15;50.85;94925.88;5085843;28;20823;-83
2021/05/30 08:11:23;;;;;;;6.27;3.27;;;;;;;19.31;49.91;94927.53;5061868;28;20441;-82
2021/05/30 08:13:49;;;;;;;3.40;3.10;;;;;;;19.54;49.97;94924.00;5061687;28;20457;-82
2021/05/30 08:16:17;;;;;;;19.40;5.77;;;;;;;19.50;49.48;94919.03;5096879;28;20438;-83
2021/05/30 08:18:43;;;;;;;33.90;7.30;;;;;;;19.35;50.20;94923.50;5061690;28;20453;-83
2021/05/30 08:21:10;;;;;;;6.90;4.33;;;;;;;19.29;49.92;94921.56;5096851;28;20460;-82
2021/05/30 08:23:40;;;;;;;3.30;3.00;;;;;;;19.32;50.19;94912.41;5097259;28;20433;-81
2021/05/30 08:26:06;;;;;;;3.20;3.00;;;;;;;19.36;50.44;94908.34;5044314;28;20945;-81
2021/05/30 08:28:33;;;;;;;4.47;4.07;;;;;;;19.32;50.45;94907.91;5096571;28;20914;-81
2021/05/30 08:30:59;;;;;;;3.20;2.90;;;;;;;19.45;50.89;94917.94;5096706;28;20442;-81
2021/05/30 08:33:27;;;;;;;7.30;3.97;;;;;;;19.56;50.47;94914.00;5096487;28;20454;-82
2021/05/30 08:35:54;;;;;;;11.43;3.73;;;;;;;19.65;50.21;94905.72;5096410;28;20493;-82
2021/05/30 08:38:20;;;;;;;3.70;3.47;;;;;;;19.75;50.13;94913.44;5060853;28;20437;-81
2021/05/30 08:40:48;;;;;;;4.17;3.80;;;;;;;19.89;49.51;94912.56;5096343;28;20496;-82
2021/05/30 08:43:15;;;;;;;3.73;3.43;;;;;;;19.92;50.59;94908.72;5096570;28;20437;-82
2021/05/30 08:45:42;;;;;;;4.10;3.80;;;;;;;19.99;49.02;94910.47;5096518;28;20507;-81
2021/05/30 08:48:09;;;;;;;4.07;3.23;;;;;;;20.27;50.14;94918.56;5096263;28;20474;-80
2021/05/30 08:50:37;;;;;;;3.30;2.93;;;;;;;20.48;48.53;94909.75;5096348;28;20439;-81
2021/05/30 08:53:04;;;;;;;3.00;2.77;;;;;;;20.48;46.10;94914.28;5096527;28;20506;-82
2021/05/30 08:55:31;;;;;;;2.90;2.70;;;;;;;20.61;47.05;94909.09;5096092;28;20839;-82
2021/05/30 08:57:57;;;;;;;6.70;3.50;;;;;;;20.65;47.20;94911.19;5096352;28;20854;-82
2021/05/30 09:00:27;;;;;;;3.80;3.60;;;;;;;20.49;47.41;94915.91;5096127;28;20455;-81
2021/05/30 09:03:12;;;;;;;3.30;3.10;;;;;;;20.26;47.01;94914.25;5061155;28;20454;-81
2021/05/30 09:05:40;;;;;;;3.13;2.93;;;;;;;20.28;47.84;94909.56;5094910;28;21047;-82
2021/05/30 09:08:07;;;;;;;3.60;3.33;;;;;;;20.36;48.12;94901.44;5095585;28;20512;-82
2021/05/30 09:10:35;;;;;;;3.30;3.00;;;;;;;20.36;49.35;94901.44;5043897;28;20446;-81
2021/05/30 09:13:06;;;;;;;4.23;3.40;;;;;;;20.44;48.50;94910.34;5095819;28;20467;-82
2021/05/30 09:15:51;;;;;;;4.27;3.90;;;;;;;20.48;47.73;94915.09;5095909;28;20857;-82
2021/05/30 09:18:19;;;;;;;4.03;3.73;;;;;;;20.43;47.79;94906.84;5095860;28;20448;-81
2021/05/30 09:20:54;;;;;;;6.70;3.97;;;;;;;20.36;48.44;94917.41;5095650;28;20427;-81
2021/05/30 09:23:34;;;;;;;8.97;3.97;;;;;;;20.32;48.67;94913.50;5043592;28;20436;-81
2021/05/30 09:26:12;;;;;;;4.40;3.97;;;;;;;20.28;48.94;94914.06;5095602;28;20510;-81
2021/05/30 09:28:40;;;;;;;8.20;3.87;;;;;;;20.16;47.86;94910.22;5095268;28;20428;-82
2021/05/30 09:31:07;;;;;;;5.10;3.20;;;;;;;20.17;47.83;94902.03;5095222;28;20930;-81
2021/05/30 09:33:34;;;;;;;5.20;3.20;;;;;;;20.31;48.78;94901.19;5095277;28;20810;-81
2021/05/30 09:36:04;;;;;;;3.57;3.27;;;;;;;20.42;47.30;94887.38;5044147;28;20448;-81
2021/05/30 09:38:39;;;;;;;32.63;6.30;;;;;;;20.59;48.11;94890.63;5094983;28;20912;-81
2021/05/30 09:41:11;;;;;;;5.20;3.23;;;;;;;20.78;46.45;94883.78;5095522;28;20432;-81
2021/05/30 09:43:48;;;;;;;3.17;2.87;;;;;;;20.87;46.94;94889.81;5095018;28;20438;-80
2021/05/30 09:46:15;;;;;;;3.60;3.30;;;;;;;20.84;46.58;94883.03;5074870;28;20444;-81
2021/05/30 09:48:45;;;;;;;3.27;2.97;;;;;;;20.81;47.05;94871.91;5074926;28;20452;-81
2021/05/30 09:51:32;;;;;;;3.00;2.80;;;;;;;20.86;46.95;94872.16;5074658;28;20447;-81
2021/05/30 09:54:01;;;;;;;155.93;19.83;;;;;;;20.90;45.85;94871.59;5074709;28;20788;-81
2021/05/30 09:56:39;;;;;;;4.20;3.10;;;;;;;20.86;45.82;94865.00;5074859;28;20456;-81
2021/05/30 09:59:09;;;;;;;3.00;2.80;;;;;;;20.81;46.40;94861.22;5075304;28;20940;-82
2021/05/30 10:01:57;;;;;;;281.30;35.27;;;;;;;20.92;48.95;94860.72;5074205;28;20880;-82
2021/05/30 10:04:25;;;;;;;12.60;4.27;;;;;;;21.08;49.02;94859.56;5074491;28;20528;-82
2021/05/30 10:06:56;;;;;;;3.37;2.93;;;;;;;21.04;46.69;94859.16;5023460;28;20501;-81
2021/05/30 10:09:23;;;;;;;4.53;3.97;;;;;;;20.94;46.84;94856.84;5074389;28;20537;-82
2021/05/30 10:11:50;;;;;;;5.03;2.93;;;;;;;20.87;46.23;94853.31;5073866;28;20448;-82
2021/05/30 10:14:16;;;;;;;3.60;3.30;;;;;;;20.92;47.06;94848.19;5074283;28;20929;-81
2021/05/30 10:16:43;;;;;;;3.73;3.47;;;;;;;21.01;45.54;94847.03;5094068;28;20846;-80
2021/05/30 10:19:14;;;;;;;3.57;3.07;;;;;;;21.00;45.58;94837.38;5094110;28;20505;-81
2021/05/30 10:21:44;;;;;;;4.20;3.80;;;;;;;20.98;46.67;94833.25;5093119;28;20436;-82
2021/05/30 10:24:14;;;;;;;4.70;3.07;;;;;;;21.17;46.81;94824.56;5094126;28;20432;-82
2021/05/30 10:26:40;;;;;;;3.80;3.10;;;;;;;21.24;45.37;94824.63;5059045;28;20488;-84
2021/05/30 10:29:12;;;;;;;8.23;3.40;;;;;;;21.33;47.32;94829.59;5093865;28;20440;-81
2021/05/30 10:31:41;;;;;;;3.90;3.60;;;;;;;21.49;45.59;94822.28;5041955;28;20431;-81
2021/05/30 10:34:23;;;;;;;5.73;3.40;;;;;;;21.61;46.77;94815.34;5093748;28;20440;-81
2021/05/30 10:37:25;;;;;;;5.13;4.07;;;;;;;21.69;45.43;94822.38;5093829;28;20800;-82
2021/05/30 10:39:56;;;;;;;4.63;4.23;;;;;;;21.75;45.63;94821.56;5093359;28;20488;-81
2021/05/30 10:42:25;;;;;;;3.20;2.90;;;;;;;21.78;43.81;94822.00;5093532;28;20469;-81
2021/05/30 10:45:05;;;;;;;3.97;2.53;;;;;;;21.60;43.66;94829.72;5093293;28;20460;-81
2021/05/30 10:48:16;;;;;;;3.10;2.90;;;;;;;21.51;44.39;94821.06;5093129;28;20519;-81
2021/05/30 10:50:53;;;;;;;3.07;2.77;;;;;;;21.61;44.19;94826.84;5030915;28;20485;-82
2021/05/30 10:53:31;;;;;;;3.70;3.40;;;;;;;21.62;43.33;94814.31;5000922;28;20439;-82
2021/05/30 10:56:17;;;;;;;3.70;3.20;;;;;;;21.78;44.08;94822.00;5030850;28;20481;-82
2021/05/30 10:58:45;;;;;;;3.33;3.03;;;;;;;21.84;43.91;94810.50;5031112;28;20436;-82
2021/05/30 11:01:40;;;;;;;4.03;3.73;;;;;;;21.78;43.04;94813.97;4998012;28;20939;-81
2021/05/30 11:04:39;;;;;;;3.87;2.83;;;;;;;21.67;43.13;94819.06;4972093;28;20509;-81
2021/05/30 11:07:22;;;;;;;3.23;2.93;;;;;;;21.56;43.87;94821.28;4914677;29;20493;-82
2021/05/30 11:10:11;;;;;;;5.53;3.30;;;;;;;21.46;44.20;94818.16;4840038;29;20516;-81
2021/05/30 11:12:53;;;;;;;5.30;3.27;;;;;;;21.49;43.42;94817.75;4840298;29;20485;-81
2021/05/30 11:15:31;;;;;;;6.73;2.90;;;;;;;21.61;44.43;94810.00;4840208;29;20452;-82
2021/05/30 11:17:59;;;;;;;4.77;3.33;;;;;;;21.83;42.80;94813.38;4840211;29;20963;-82
2021/05/30 11:20:29;;;;;;;3.80;3.50;;;;;;;22.05;42.48;94798.88;4840211;29;20469;-81
2021/05/30 11:22:57;;;;;;;5.73;3.33;;;;;;;22.33;43.26;94800.56;4840039;29;20454;-81
2021/05/30 11:25:30;;;;;;;3.77;3.47;;;;;;;22.47;43.21;94796.84;4840205;29;20460;-82
2021/05/30 11:28:01;;;;;;;3.67;3.37;;;;;;;22.37;41.06;94799.13;4910520;29;21032;-81
2021/05/30 11:30:42;;;;;;;3.27;3.07;;;;;;;22.33;41.87;94790.69;4914785;29;20442;-81
2021/05/30 11:33:10;;;;;;;4.83;3.53;;;;;;;22.09;44.20;94799.28;4917093;29;20827;-84
2021/05/30 11:35:37;;;;;;;4.83;3.47;;;;;;;21.92;44.75;94801.47;4918368;29;20456;-83
2021/05/30 11:38:04;;;;;;;5.33;3.50;;;;;;;21.94;45.74;94797.56;4918088;29;20464;-83
2021/05/30 11:40:34;;;;;;;7.83;3.80;;;;;;;21.79;47.74;94801.44;4943509;28;20444;-84
2021/05/30 11:43:15;;;;;;;4.13;3.80;;;;;;;21.70;46.58;94795.47;5015047;28;20436;-80
2021/05/30 11:45:44;;;;;;;7.20;3.30;;;;;;;21.59;47.43;94788.84;5014969;28;20448;-83